Time;durP1;ratioP1;P1;durP2;ratioP2;P2;SDS_P1;SDS_P2;PMS_P1;PMS_P2;Temp;Humidity;BMP_temperature;BMP_pressure;BME280_temperature;BME280_humidity;BME280_pressure;Samples;Min_cycle;Max_cycle;Signal;HPM_P1;HPM_P2
2022/11/21 00:00:24;;;;;;;;;;;;;;;;;;5091392;28;797;-66
2022/11/21 00:02:50;;;;;;;;;;;;;;;;;;5092001;28;762;-66
2022/11/21 00:05:15;;;;;;;;;;;;;;;;;;5073015;28;1215;-65
2022/11/21 00:07:40;;;;;;;;;;;;;;;;;;5092106;28;840;-66
2022/11/21 00:10:06;;;;;;;;;;;;;;;;;;5090560;28;881;-66
2022/11/21 00:12:31;;;;;;;;;;;;;;;;;;5035980;28;1179;-66
2022/11/21 00:14:56;;;;;;;;;;;;;;;;;;5064658;28;1231;-66
2022/11/21 00:17:22;;;;;;;;;;;;;;;;;;5078123;28;1953;-66
2022/11/21 00:19:47;;;;;;;;;;;;;;;;;;5073326;28;1326;-66
2022/11/21 00:22:13;;;;;;;;;;;;;;;;;;5089305;28;1154;-66
2022/11/21 00:24:38;;;;;;;;;;;;;;;;;;5073324;28;1199;-69
2022/11/21 00:27:03;;;;;;;;;;;;;;;;;;5091046;28;790;-69
2022/11/21 00:29:28;;;;;;;;;;;;;;;;;;5072889;28;873;-69
2022/11/21 00:31:54;;;;;;;;;;;;;;;;;;5056193;28;1334;-69
2022/11/21 00:34:19;;;;;;;;;;;;;;;;;;5090194;28;892;-69
2022/11/21 00:36:44;;;;;;;;;;;;;;;;;;5091087;28;1965;-65
2022/11/21 00:39:10;;;;;;;;;;;;;;;;;;5090633;28;1038;-66
2022/11/21 00:41:35;;;;;;;;;;;;;;;;;;5073087;28;917;-66
2022/11/21 00:44:00;;;;;;;;;;;;;;;;;;5056496;28;1279;-66
2022/11/21 00:46:25;;;;;;;;;;;;;;;;;;5057326;28;1191;-66
2022/11/21 00:48:51;;;;;;;;;;;;;;;;;;5092168;28;979;-66
2022/11/21 00:51:16;;;;;;;;;;;;;;;;;;5091319;28;816;-66
2022/11/21 00:53:41;;;;;;;;;;;;;;;;;;5074082;28;1313;-66
2022/11/21 00:56:07;;;;;;;;;;;;;;;;;;5072715;28;1906;-66
2022/11/21 00:58:32;;;;;;;;;;;;;;;;;;5072924;28;1219;-66
2022/11/21 01:01:02;;;;;;;;;;;;;;;;;;5072943;28;1167;-66
2022/11/21 01:03:31;;;;;;;;;;;;;;;;;;5072460;28;1293;-66
2022/11/21 01:06:15;;;;;;;;;;;;;;;;;;5072776;28;884;-66
2022/11/21 01:08:41;;;;;;;;;;;;;;;;;;5091095;28;899;-67
2022/11/21 01:11:07;;;;;;;;;;;;;;;;;;5088653;28;1116;-66
2022/11/21 01:13:33;;;;;;;;;;;;;;;;;;5060542;28;1469;-67
2022/11/21 01:16:05;;;;;;;;;;;;;;;;;;5050427;28;1898;-67
2022/11/21 01:18:30;;;;;;;;;;;;;;;;;;5050740;28;829;-67
2022/11/21 01:21:02;;;;;;;;;;;;;;;;;;5050456;28;966;-66
2022/11/21 01:23:27;;;;;;;;;;;;;;;;;;5049399;28;916;-70
2022/11/21 01:25:53;;;;;;;;;;;;;;;;;;5050312;28;856;-69
2022/11/21 01:28:18;;;;;;;;;;;;;;;;;;5047780;28;1180;-69
2022/11/21 01:30:43;;;;;;;;;;;;;;;;;;5050235;28;928;-69
2022/11/21 01:33:08;;;;;;;;;;;;;;;;;;5049778;28;873;-69
2022/11/21 01:35:34;;;;;;;;;;;;;;;;;;5032081;28;1363;-69
2022/11/21 01:37:59;;;;;;;;;;;;;;;;;;5049766;28;1956;-69
2022/11/21 01:40:24;;;;;;;;;;;;;;;;;;5049805;28;927;-69
2022/11/21 01:42:54;;;;;;;;;;;;;;;;;;5049913;28;912;-69
2022/11/21 01:45:55;;;;;;;;;;;;;;;;;;5047467;28;1212;-69
2022/11/21 01:48:23;;;;;;;;;;;;;;;;;;4987535;28;1204;-66
2022/11/21 01:50:48;;;;;;;;;;;;;;;;;;5038140;28;914;-66
2022/11/21 01:53:14;;;;;;;;;;;;;;;;;;5049066;28;971;-66
2022/11/21 01:55:39;;;;;;;;;;;;;;;;;;5050583;28;935;-66
2022/11/21 01:58:04;;;;;;;;;;;;;;;;;;5047946;28;1979;-66
2022/11/21 02:00:34;;;;;;;;;;;;;;;;;;5031816;28;1275;-65
2022/11/21 02:03:03;;;;;;;;;;;;;;;;;;5049979;28;908;-66
2022/11/21 02:05:30;;;;;;;;;;;;;;;;;;5048986;28;888;-66
2022/11/21 02:07:57;;;;;;;;;;;;;;;;;;5050301;28;893;-65
2022/11/21 02:10:23;;;;;;;;;;;;;;;;;;5048958;28;1339;-66
2022/11/21 02:12:49;;;;;;;;;;;;;;;;;;5049396;28;1195;-66
2022/11/21 02:15:16;;;;;;;;;;;;;;;;;;5049954;28;822;-65
2022/11/21 02:17:41;;;;;;;;;;;;;;;;;;5050621;28;1973;-65
2022/11/21 02:20:08;;;;;;;;;;;;;;;;;;5032117;28;1188;-65
2022/11/21 02:22:52;;;;;;;;;;;;;;;;;;5050235;28;1164;-66
2022/11/21 02:25:18;;;;;;;;;;;;;;;;;;5050500;28;984;-66
2022/11/21 02:27:44;;;;;;;;;;;;;;;;;;5050793;28;916;-66
2022/11/21 02:30:10;;;;;;;;;;;;;;;;;;5049288;28;825;-66
2022/11/21 02:32:37;;;;;;;;;;;;;;;;;;5049947;28;1231;-66
2022/11/21 02:35:02;;;;;;;;;;;;;;;;;;5050108;28;1215;-66
2022/11/21 02:37:27;;;;;;;;;;;;;;;;;;5053056;28;1961;-66
2022/11/21 02:39:54;;;;;;;;;;;;;;;;;;5035758;28;1200;-66
2022/11/21 02:42:26;;;;;;;;;;;;;;;;;;5051062;28;1144;-65
2022/11/21 02:45:06;;;;;;;;;;;;;;;;;;5051659;28;1208;-66
2022/11/21 02:47:32;;;;;;;;;;;;;;;;;;5053042;28;844;-66
2022/11/21 02:50:13;;;;;;;;;;;;;;;;;;5035491;28;1095;-66
2022/11/21 02:52:39;;;;;;;;;;;;;;;;;;5053450;28;873;-66
2022/11/21 02:55:04;;;;;;;;;;;;;;;;;;5053332;28;987;-65
2022/11/21 02:57:30;;;;;;;;;;;;;;;;;;5051369;28;1977;-65
2022/11/21 02:59:55;;;;;;;;;;;;;;;;;;5052888;28;955;-65
2022/11/21 03:02:20;;;;;;;;;;;;;;;;;;5050982;28;1039;-66
2022/11/21 03:04:45;;;;;;;;;;;;;;;;;;5052726;28;849;-66
2022/11/21 03:07:11;;;;;;;;;;;;;;;;;;5050998;28;1147;-66
2022/11/21 03:09:36;;;;;;;;;;;;;;;;;;5034524;28;1224;-67
2022/11/21 03:12:08;;;;;;;;;;;;;;;;;;5051127;28;987;-67
2022/11/21 03:14:34;;;;;;;;;;;;;;;;;;5052241;28;935;-65
2022/11/21 03:16:59;;;;;;;;;;;;;;;;;;5052454;28;1949;-65
2022/11/21 03:19:25;;;;;;;;;;;;;;;;;;5051640;28;810;-66
2022/11/21 03:21:50;;;;;;;;;;;;;;;;;;5050893;28;893;-65
2022/11/21 03:24:15;;;;;;;;;;;;;;;;;;5050810;28;1302;-65
2022/11/21 03:26:40;;;;;;;;;;;;;;;;;;5034551;28;1358;-66
2022/11/21 03:29:06;;;;;;;;;;;;;;;;;;5051106;28;884;-65
2022/11/21 03:31:31;;;;;;;;;;;;;;;;;;5034061;28;1145;-65
2022/11/21 03:33:56;;;;;;;;;;;;;;;;;;5052412;28;1051;-65
2022/11/21 03:36:22;;;;;;;;;;;;;;;;;;5050104;28;1971;-65
2022/11/21 03:38:47;;;;;;;;;;;;;;;;;;5050976;28;1166;-65
2022/11/21 03:41:28;;;;;;;;;;;;;;;;;;5051679;28;1032;-65
2022/11/21 03:43:53;;;;;;;;;;;;;;;;;;5051801;28;971;-66
2022/11/21 03:46:18;;;;;;;;;;;;;;;;;;5050554;28;1177;-65
2022/11/21 03:48:44;;;;;;;;;;;;;;;;;;5051874;28;1156;-65
2022/11/21 03:51:09;;;;;;;;;;;;;;;;;;5051450;28;1169;-65
2022/11/21 03:53:34;;;;;;;;;;;;;;;;;;5052422;28;806;-65
2022/11/21 03:55:59;;;;;;;;;;;;;;;;;;5052131;28;1918;-66
2022/11/21 03:58:24;;;;;;;;;;;;;;;;;;5051217;28;853;-66
2022/11/21 04:00:50;;;;;;;;;;;;;;;;;;5051973;28;900;-66
2022/11/21 04:03:15;;;;;;;;;;;;;;;;;;5051430;28;916;-66
2022/11/21 04:05:40;;;;;;;;;;;;;;;;;;5051801;28;928;-66
2022/11/21 04:08:05;;;;;;;;;;;;;;;;;;5033691;28;1244;-65
2022/11/21 04:10:31;;;;;;;;;;;;;;;;;;5051130;28;955;-66
2022/11/21 04:12:56;;;;;;;;;;;;;;;;;;5051773;28;1149;-66
2022/11/21 04:15:21;;;;;;;;;;;;;;;;;;5049521;28;1171;-66
2022/11/21 04:17:46;;;;;;;;;;;;;;;;;;5050594;28;1953;-66
2022/11/21 04:20:12;;;;;;;;;;;;;;;;;;5033396;28;1200;-66
2022/11/21 04:22:37;;;;;;;;;;;;;;;;;;5050523;28;1231;-67
2022/11/21 04:25:02;;;;;;;;;;;;;;;;;;5033577;28;1264;-67
2022/11/21 04:27:28;;;;;;;;;;;;;;;;;;5050659;28;813;-66
2022/11/21 04:29:53;;;;;;;;;;;;;;;;;;5051875;28;833;-65
2022/11/21 04:32:18;;;;;;;;;;;;;;;;;;5050181;28;1031;-66
2022/11/21 04:34:43;;;;;;;;;;;;;;;;;;5051635;28;1054;-66
2022/11/21 04:37:09;;;;;;;;;;;;;;;;;;5051277;28;1949;-65
2022/11/21 04:39:34;;;;;;;;;;;;;;;;;;5049672;28;1199;-65
2022/11/21 04:41:59;;;;;;;;;;;;;;;;;;5051084;28;995;-65
2022/11/21 04:44:24;;;;;;;;;;;;;;;;;;5049538;28;818;-66
2022/11/21 04:46:52;;;;;;;;;;;;;;;;;;5051156;28;1358;-66
2022/11/21 04:49:17;;;;;;;;;;;;;;;;;;5049528;28;912;-66
2022/11/21 04:51:42;;;;;;;;;;;;;;;;;;5050118;28;1101;-65
2022/11/21 04:54:09;;;;;;;;;;;;;;;;;;5033352;28;1191;-66
2022/11/21 04:56:35;;;;;;;;;;;;;;;;;;5050861;28;1969;-65
2022/11/21 04:59:00;;;;;;;;;;;;;;;;;;5051538;28;849;-66
2022/11/21 05:01:25;;;;;;;;;;;;;;;;;;5050029;28;1078;-67
2022/11/21 05:03:51;;;;;;;;;;;;;;;;;;5049898;28;1062;-66
2022/11/21 05:06:16;;;;;;;;;;;;;;;;;;5050497;28;1004;-66
2022/11/21 05:08:41;;;;;;;;;;;;;;;;;;5049560;28;861;-66
2022/11/21 05:13:54;;;;;;;;;;;;;;;;;;5050958;28;710;-66
2022/11/21 05:16:19;;;;;;;;;;;;;;;;;;5032225;28;1957;-65
2022/11/21 05:18:44;;;;;;;;;;;;;;;;;;5032854;28;1411;-67
2022/11/21 05:21:10;;;;;;;;;;;;;;;;;;5032697;28;1276;-66
2022/11/21 05:23:35;;;;;;;;;;;;;;;;;;5049610;28;1358;-67
2022/11/21 05:26:00;;;;;;;;;;;;;;;;;;5033434;28;1185;-67
2022/11/21 05:28:25;;;;;;;;;;;;;;;;;;5050358;28;841;-67
2022/11/21 05:30:51;;;;;;;;;;;;;;;;;;5050199;28;936;-67
2022/11/21 05:33:16;;;;;;;;;;;;;;;;;;5050530;28;833;-67
2022/11/21 05:35:41;;;;;;;;;;;;;;;;;;5051131;28;822;-67
2022/11/21 05:38:06;;;;;;;;;;;;;;;;;;5050044;28;1971;-67
2022/11/21 05:40:32;;;;;;;;;;;;;;;;;;5048323;28;829;-67
2022/11/21 05:45:41;;;;;;;;;;;;;;;;;;5049833;28;1109;-67
2022/11/21 05:48:06;;;;;;;;;;;;;;;;;;5048485;28;900;-67
2022/11/21 05:50:32;;;;;;;;;;;;;;;;;;5048109;28;845;-66
2022/11/21 05:53:00;;;;;;;;;;;;;;;;;;5052988;28;1176;-66
2022/11/21 05:55:25;;;;;;;;;;;;;;;;;;5049945;28;1289;-65
2022/11/21 05:57:50;;;;;;;;;;;;;;;;;;5031150;28;1913;-65
2022/11/21 06:00:16;;;;;;;;;;;;;;;;;;5031592;28;912;-65
2022/11/21 06:05:25;;;;;;;;;;;;;;;;;;5049707;28;654;-66
2022/11/21 06:07:50;;;;;;;;;;;;;;;;;;5032028;28;837;-67
2022/11/21 06:10:16;;;;;;;;;;;;;;;;;;5053275;28;798;-67
2022/11/21 06:12:41;;;;;;;;;;;;;;;;;;5054311;28;837;-66
2022/11/21 06:15:07;;;;;;;;;;;;;;;;;;5054129;28;869;-66
2022/11/21 06:17:32;;;;;;;;;;;;;;;;;;5034850;28;1882;-67
2022/11/21 06:19:57;;;;;;;;;;;;;;;;;;5036334;28;1244;-66
2022/11/21 06:22:23;;;;;;;;;;;;;;;;;;5053524;28;797;-67
2022/11/21 06:24:48;;;;;;;;;;;;;;;;;;5035432;28;1157;-66
2022/11/21 06:27:13;;;;;;;;;;;;;;;;;;5074856;28;1255;-66
2022/11/21 06:29:39;;;;;;;;;;;;;;;;;;5093827;28;828;-66
2022/11/21 06:32:04;;;;;;;;;;;;;;;;;;5093762;28;887;-66
2022/11/21 06:34:29;;;;;;;;;;;;;;;;;;5074663;28;1224;-66
2022/11/21 06:36:55;;;;;;;;;;;;;;;;;;5074886;28;1927;-66
2022/11/21 06:39:20;;;;;;;;;;;;;;;;;;5074893;28;1500;-66
2022/11/21 06:41:49;;;;;;;;;;;;;;;;;;5057631;28;1186;-66
2022/11/21 06:44:18;;;;;;;;;;;;;;;;;;5074943;28;837;-67
2022/11/21 06:46:43;;;;;;;;;;;;;;;;;;5092639;28;1243;-66
2022/11/21 06:49:09;;;;;;;;;;;;;;;;;;5093912;28;868;-66
2022/11/21 06:51:34;;;;;;;;;;;;;;;;;;5092536;28;951;-66
2022/11/21 06:53:59;;;;;;;;;;;;;;;;;;5093173;28;1029;-66
2022/11/21 06:56:25;;;;;;;;;;;;;;;;;;5093558;28;1918;-67
2022/11/21 06:58:51;;;;;;;;;;;;;;;;;;5075345;28;911;-67
2022/11/21 07:01:17;;;;;;;;;;;;;;;;;;5078965;28;1237;-66
2022/11/21 07:03:42;;;;;;;;;;;;;;;;;;5051780;28;829;-66
2022/11/21 07:06:07;;;;;;;;;;;;;;;;;;5050843;28;1330;-66
2022/11/21 07:08:34;;;;;;;;;;;;;;;;;;5052078;28;1140;-67
2022/11/21 07:11:04;;;;;;;;;;;;;;;;;;5034266;28;1339;-67
2022/11/21 07:13:29;;;;;;;;;;;;;;;;;;5050185;28;1200;-67
2022/11/21 07:15:59;;;;;;;;;;;;;;;;;;5050740;28;1144;-67
2022/11/21 07:18:25;;;;;;;;;;;;;;;;;;5050611;28;1963;-67
2022/11/21 07:20:50;;;;;;;;;;;;;;;;;;5049594;28;1215;-67
2022/11/21 07:23:16;;;;;;;;;;;;;;;;;;5051116;28;941;-66
2022/11/21 07:25:41;;;;;;;;;;;;;;;;;;5033888;28;1417;-66
2022/11/21 07:28:07;;;;;;;;;;;;;;;;;;5052026;28;896;-66
2022/11/21 07:30:33;;;;;;;;;;;;;;;;;;5051266;28;869;-66
2022/11/21 07:33:00;;;;;;;;;;;;;;;;;;5050741;28;817;-66
2022/11/21 07:35:25;;;;;;;;;;;;;;;;;;5050991;28;884;-66
2022/11/21 07:37:51;;;;;;;;;;;;;;;;;;5050677;28;1941;-66
2022/11/21 07:40:17;;;;;;;;;;;;;;;;;;5050104;28;804;-66
2022/11/21 07:42:42;;;;;;;;;;;;;;;;;;5050085;28;1220;-66
2022/11/21 07:45:08;;;;;;;;;;;;;;;;;;5050034;28;1235;-66
2022/11/21 07:47:33;;;;;;;;;;;;;;;;;;5050874;28;1298;-66
2022/11/21 07:49:58;;;;;;;;;;;;;;;;;;5050153;28;822;-65
2022/11/21 07:52:24;;;;;;;;;;;;;;;;;;5051458;28;837;-65
2022/11/21 07:54:49;;;;;;;;;;;;;;;;;;5051711;28;904;-66
2022/11/21 07:57:15;;;;;;;;;;;;;;;;;;5050824;28;1997;-66
2022/11/21 07:59:40;;;;;;;;;;;;;;;;;;5052177;28;940;-66
2022/11/21 08:02:05;;;;;;;;;;;;;;;;;;5050181;28;1237;-66
2022/11/21 08:04:31;;;;;;;;;;;;;;;;;;5050126;28;877;-66
2022/11/21 08:06:56;;;;;;;;;;;;;;;;;;5050932;28;946;-66
2022/11/21 08:09:26;;;;;;;;;;;;;;;;;;5049343;28;829;-65
2022/11/21 08:11:52;;;;;;;;;;;;;;;;;;5051071;28;913;-65
2022/11/21 08:14:17;;;;;;;;;;;;;;;;;;5049192;28;829;-65
2022/11/21 08:16:43;;;;;;;;;;;;;;;;;;5049677;28;1957;-65
2022/11/21 08:19:08;;;;;;;;;;;;;;;;;;5049755;28;1117;-65
2022/11/21 08:21:33;;;;;;;;;;;;;;;;;;5050800;28;816;-65
2022/11/21 08:23:59;;;;;;;;;;;;;;;;;;5049336;28;1259;-65
2022/11/21 08:26:24;;;;;;;;;;;;;;;;;;5050179;28;821;-65
2022/11/21 08:28:49;;;;;;;;;;;;;;;;;;5050685;28;805;-65
2022/11/21 08:31:14;;;;;;;;;;;;;;;;;;5050957;28;833;-65
2022/11/21 08:33:40;;;;;;;;;;;;;;;;;;5050528;28;1180;-65
2022/11/21 08:36:05;;;;;;;;;;;;;;;;;;5051606;28;1098;-65
2022/11/21 08:38:31;;;;;;;;;;;;;;;;;;5051200;28;1161;-65
2022/11/21 08:43:40;;;;;;;;;;;;;;;;;;5051229;28;661;-65
2022/11/21 08:46:05;;;;;;;;;;;;;;;;;;5048218;28;1228;-65
2022/11/21 08:48:30;;;;;;;;;;;;;;;;;;5049967;28;888;-65
2022/11/21 08:50:56;;;;;;;;;;;;;;;;;;5050059;28;955;-65
2022/11/21 08:53:21;;;;;;;;;;;;;;;;;;5049973;28;971;-65
2022/11/21 08:55:46;;;;;;;;;;;;;;;;;;5049306;28;988;-65
2022/11/21 08:58:11;;;;;;;;;;;;;;;;;;5049744;28;1972;-66
2022/11/21 09:00:36;;;;;;;;;;;;;;;;;;5048974;28;821;-66
2022/11/21 09:03:05;;;;;;;;;;;;;;;;;;5048561;28;833;-65
2022/11/21 09:05:30;;;;;;;;;;;;;;;;;;5048239;28;924;-65
2022/11/21 09:07:56;;;;;;;;;;;;;;;;;;5050470;28;833;-65
2022/11/21 09:10:22;;;;;;;;;;;;;;;;;;5050108;28;892;-65
2022/11/21 09:12:47;;;;;;;;;;;;;;;;;;5048793;28;1172;-65
2022/11/21 09:18:03;;;;;;;;;;;;;;;;;;5048874;28;1901;-65
2022/11/21 09:20:29;;;;;;;;;;;;;;;;;;5048078;28;900;-65
2022/11/21 09:22:54;;;;;;;;;;;;;;;;;;5049604;28;1023;-65
2022/11/21 09:25:19;;;;;;;;;;;;;;;;;;5047851;28;1171;-65
2022/11/21 09:27:45;;;;;;;;;;;;;;;;;;5048650;28;825;-66
2022/11/21 09:30:10;;;;;;;;;;;;;;;;;;5048361;28;865;-66
2022/11/21 09:32:36;;;;;;;;;;;;;;;;;;5048320;28;826;-66
2022/11/21 09:35:01;;;;;;;;;;;;;;;;;;5049548;28;828;-65
2022/11/21 09:37:26;;;;;;;;;;;;;;;;;;5031356;28;1894;-64
2022/11/21 09:39:51;;;;;;;;;;;;;;;;;;5048250;28;1128;-66
2022/11/21 09:42:36;;;;;;;;;;;;;;;;;;5031078;28;1203;-65
2022/11/21 09:45:16;;;;;;;;;;;;;;;;;;5055831;28;872;-65
2022/11/21 09:47:43;;;;;;;;;;;;;;;;;;5055365;28;1323;-66
2022/11/21 09:50:11;;;;;;;;;;;;;;;;;;5055409;28;1329;-65
2022/11/21 09:52:52;;;;;;;;;;;;;;;;;;5054734;28;1342;-66
2022/11/21 09:55:25;;;;;;;;;;;;;;;;;;5055720;28;766;-66
2022/11/21 09:57:50;;;;;;;;;;;;;;;;;;5056250;28;1918;-66
2022/11/21 10:00:19;;;;;;;;;;;;;;;;;;5055824;28;1031;-66
2022/11/21 10:02:44;;;;;;;;;;;;;;;;;;5056400;28;954;-66
2022/11/21 10:05:13;;;;;;;;;;;;;;;;;;5038473;28;1200;-65
2022/11/21 10:07:39;;;;;;;;;;;;;;;;;;5039423;28;1113;-66
2022/11/21 10:10:04;;;;;;;;;;;;;;;;;;5055414;28;880;-66
2022/11/21 10:12:44;;;;;;;;;;;;;;;;;;5054488;28;1327;-66
2022/11/21 10:15:30;;;;;;;;;;;;;;;;;;5055759;28;883;-66
2022/11/21 10:18:02;;;;;;;;;;;;;;;;;;5055694;28;1898;-65
2022/11/21 10:20:46;;;;;;;;;;;;;;;;;;5055398;28;856;-65
2022/11/21 10:23:14;;;;;;;;;;;;;;;;;;5054567;28;1353;-65
2022/11/21 10:25:44;;;;;;;;;;;;;;;;;;5054068;28;1286;-65
2022/11/21 10:28:28;;;;;;;;;;;;;;;;;;5055709;28;915;-65
2022/11/21 10:30:55;;;;;;;;;;;;;;;;;;5055516;28;916;-65
2022/11/21 10:33:26;;;;;;;;;;;;;;;;;;5054545;28;754;-65
2022/11/21 10:35:56;;;;;;;;;;;;;;;;;;5055241;28;821;-65
2022/11/21 10:38:25;;;;;;;;;;;;;;;;;;5053448;28;1997;-65
2022/11/21 10:41:23;;;;;;;;;;;;;;;;;;5054377;28;1148;-65
2022/11/21 10:46:53;;;;;;;;;;;;;;;;;;5055302;28;1192;-65
2022/11/21 10:49:18;;;;;;;;;;;;;;;;;;5054899;28;984;-65
2022/11/21 10:51:55;;;;;;;;;;;;;;;;;;5055215;28;967;-66
2022/11/21 10:54:33;;;;;;;;;;;;;;;;;;5052660;28;1264;-65
2022/11/21 10:57:15;;;;;;;;;;;;;;;;;;5050356;28;1910;-64
2022/11/21 10:59:54;;;;;;;;;;;;;;;;;;5052011;28;928;-65
2022/11/21 11:02:22;;;;;;;;;;;;;;;;;;5051979;28;864;-65
2022/11/21 11:04:47;;;;;;;;;;;;;;;;;;5051183;28;1362;-65
2022/11/21 11:07:19;;;;;;;;;;;;;;;;;;5050560;28;1311;-65
2022/11/21 11:09:46;;;;;;;;;;;;;;;;;;5051844;28;928;-65
2022/11/21 11:12:17;;;;;;;;;;;;;;;;;;5051793;28;912;-65
2022/11/21 11:14:48;;;;;;;;;;;;;;;;;;5051524;28;1098;-65
2022/11/21 11:17:14;;;;;;;;;;;;;;;;;;5052162;28;1898;-65
2022/11/21 11:19:57;;;;;;;;;;;;;;;;;;5050162;28;1176;-65
2022/11/21 11:22:27;;;;;;;;;;;;;;;;;;5051131;28;1058;-65
2022/11/21 11:24:53;;;;;;;;;;;;;;;;;;5050927;28;1196;-65
2022/11/21 11:27:25;;;;;;;;;;;;;;;;;;5052061;28;837;-65
2022/11/21 11:29:50;;;;;;;;;;;;;;;;;;5052077;28;999;-65
2022/11/21 11:32:18;;;;;;;;;;;;;;;;;;5051077;28;852;-65
2022/11/21 11:34:50;;;;;;;;;;;;;;;;;;5049866;28;939;-65
2022/11/21 11:37:20;;;;;;;;;;;;;;;;;;5049830;28;1905;-64
2022/11/21 11:39:51;;;;;;;;;;;;;;;;;;5049859;28;1232;-65
2022/11/21 11:47:47;;;;;;;;;;;;;;;;;;5050769;28;1215;-64
2022/11/21 11:50:21;;;;;;;;;;;;;;;;;;5051412;28;908;-64
2022/11/21 11:52:50;;;;;;;;;;;;;;;;;;5051015;28;1326;-64
2022/11/21 11:55:35;;;;;;;;;;;;;;;;;;5050721;28;1306;-64
2022/11/21 11:58:03;;;;;;;;;;;;;;;;;;5061280;28;1914;-64
2022/11/21 12:00:39;;;;;;;;;;;;;;;;;;5032159;28;1376;-64
2022/11/21 12:03:04;;;;;;;;;;;;;;;;;;5049981;28;1161;-64
2022/11/21 12:05:31;;;;;;;;;;;;;;;;;;5032250;28;1220;-64
2022/11/21 12:07:59;;;;;;;;;;;;;;;;;;5034144;28;1314;-64
2022/11/21 12:13:32;;;;;;;;;;;;;;;;;;5049714;28;1065;-64
2022/11/21 12:16:02;;;;;;;;;;;;;;;;;;5049614;28;1089;-64
2022/11/21 12:18:36;;;;;;;;;;;;;;;;;;5031302;28;1969;-64
2022/11/21 12:21:01;;;;;;;;;;;;;;;;;;5048786;28;1200;-64
2022/11/21 12:23:30;;;;;;;;;;;;;;;;;;5031240;28;1357;-64
2022/11/21 12:26:13;;;;;;;;;;;;;;;;;;5074564;28;1156;-64
2022/11/21 12:28:45;;;;;;;;;;;;;;;;;;5053244;28;1294;-64
2022/11/21 12:31:32;;;;;;;;;;;;;;;;;;5079314;28;1179;-64
2022/11/21 12:34:24;;;;;;;;;;;;;;;;;;5070179;28;1321;-65
2022/11/21 12:36:52;;;;;;;;;;;;;;;;;;5039964;28;1902;-64
2022/11/21 12:39:27;;;;;;;;;;;;;;;;;;5083505;28;1171;-64
2022/11/21 12:45:17;;;;;;;;;;;;;;;;;;5091160;28;615;-64
2022/11/21 12:56:23;;;;;;;;;;;;;;;;;;5050430;28;1911;-64
2022/11/21 12:58:50;;;;;;;;;;;;;;;;;;5050906;28;821;-64
2022/11/21 13:01:34;;;;;;;;;;;;;;;;;;5050219;28;880;-65
2022/11/21 13:04:00;;;;;;;;;;;;;;;;;;5032217;28;1176;-64
2022/11/21 13:06:27;;;;;;;;;;;;;;;;;;5049171;28;912;-65
2022/11/21 13:08:54;;;;;;;;;;;;;;;;;;5031923;28;1286;-64
2022/11/21 13:14:28;;;;;;;;;;;;;;;;;;5048756;28;643;-64
2022/11/21 13:17:13;;;;;;;;;;;;;;;;;;5049770;28;1915;-64
2022/11/21 13:19:50;;;;;;;;;;;;;;;;;;5006911;28;1065;-64
2022/11/21 13:22:34;;;;;;;;;;;;;;;;;;5049027;28;817;-64
2022/11/21 13:25:00;;;;;;;;;;;;;;;;;;5049084;28;967;-64
2022/11/21 13:27:30;;;;;;;;;;;;;;;;;;5048720;28;865;-64
2022/11/21 13:30:08;;;;;;;;;;;;;;;;;;5049715;28;885;-64
2022/11/21 13:32:43;;;;;;;;;;;;;;;;;;5031136;28;1239;-64
2022/11/21 13:35:20;;;;;;;;;;;;;;;;;;5032740;28;1362;-63
2022/11/21 13:37:48;;;;;;;;;;;;;;;;;;5050340;28;1972;-64
2022/11/21 13:40:26;;;;;;;;;;;;;;;;;;5050445;28;903;-64
2022/11/21 13:43:10;;;;;;;;;;;;;;;;;;5050603;28;833;-64
2022/11/21 13:45:35;;;;;;;;;;;;;;;;;;5049135;28;626;-64
2022/11/21 13:48:21;;;;;;;;;;;;;;;;;;5049328;28;1097;-65
2022/11/21 13:51:09;;;;;;;;;;;;;;;;;;5046729;28;1252;-65
2022/11/21 13:53:50;;;;;;;;;;;;;;;;;;5030802;28;1206;-64
2022/11/21 13:56:36;;;;;;;;;;;;;;;;;;5048088;28;1194;-64
2022/11/21 13:59:04;;;;;;;;;;;;;;;;;;5049540;28;829;-64
2022/11/21 14:01:52;;;;;;;;;;;;;;;;;;5048906;28;766;-65
2022/11/21 14:04:32;;;;;;;;;;;;;;;;;;5049555;28;915;-65
2022/11/21 14:07:17;;;;;;;;;;;;;;;;;;5049863;28;829;-64
2022/11/21 14:09:46;;;;;;;;;;;;;;;;;;5048909;28;912;-65
2022/11/21 14:12:19;;;;;;;;;;;;;;;;;;5049585;28;742;-64
2022/11/21 14:14:52;;;;;;;;;;;;;;;;;;5048789;28;1003;-65
2022/11/21 14:17:23;;;;;;;;;;;;;;;;;;5049269;28;1945;-65
2022/11/21 14:19:50;;;;;;;;;;;;;;;;;;5049752;28;762;-65
2022/11/21 14:22:24;;;;;;;;;;;;;;;;;;5031548;28;1270;-64
2022/11/21 14:24:50;;;;;;;;;;;;;;;;;;5031328;28;1410;-65
2022/11/21 14:27:21;;;;;;;;;;;;;;;;;;5047874;28;995;-65
2022/11/21 14:29:46;;;;;;;;;;;;;;;;;;5047205;28;1344;-64
2022/11/21 14:32:15;;;;;;;;;;;;;;;;;;5034012;28;892;-64
2022/11/21 14:34:40;;;;;;;;;;;;;;;;;;5033571;28;1195;-64
2022/11/21 14:37:06;;;;;;;;;;;;;;;;;;5034335;28;2017;-64
2022/11/21 14:39:38;;;;;;;;;;;;;;;;;;5051460;28;813;-64
2022/11/21 14:42:04;;;;;;;;;;;;;;;;;;5052616;28;1143;-64
2022/11/21 14:44:29;;;;;;;;;;;;;;;;;;5051223;28;1258;-64
2022/11/21 14:47:22;;;;;;;;;;;;;;;;;;5052776;28;1252;-64
2022/11/21 14:49:52;;;;;;;;;;;;;;;;;;5047520;28;1141;-66
2022/11/21 14:52:20;;;;;;;;;;;;;;;;;;5034734;28;1243;-66
2022/11/21 14:54:48;;;;;;;;;;;;;;;;;;5033638;28;1465;-65
2022/11/21 14:57:31;;;;;;;;;;;;;;;;;;5052479;28;1973;-66
2022/11/21 14:59:56;;;;;;;;;;;;;;;;;;5052495;28;892;-68
2022/11/21 15:02:23;;;;;;;;;;;;;;;;;;5017789;28;1218;-68
2022/11/21 15:04:50;;;;;;;;;;;;;;;;;;5034174;28;1245;-68
2022/11/21 15:07:25;;;;;;;;;;;;;;;;;;5052565;28;758;-68
2022/11/21 15:09:50;;;;;;;;;;;;;;;;;;5058834;28;1236;-68
2022/11/21 15:12:21;;;;;;;;;;;;;;;;;;5093165;28;995;-68
2022/11/21 15:15:01;;;;;;;;;;;;;;;;;;5074868;28;1262;-68
2022/11/21 15:17:27;;;;;;;;;;;;;;;;;;5092344;28;1898;-68
2022/11/21 15:20:04;;;;;;;;;;;;;;;;;;5073829;28;888;-68
2022/11/21 15:22:34;;;;;;;;;;;;;;;;;;5091159;28;904;-68
2022/11/21 15:25:14;;;;;;;;;;;;;;;;;;5090461;28;1210;-65
2022/11/21 15:27:39;;;;;;;;;;;;;;;;;;5073290;28;1199;-65
2022/11/21 15:30:07;;;;;;;;;;;;;;;;;;5092002;28;900;-65
2022/11/21 15:32:33;;;;;;;;;;;;;;;;;;5090459;28;1167;-66
2022/11/21 15:34:58;;;;;;;;;;;;;;;;;;5092056;28;801;-65
2022/11/21 15:37:24;;;;;;;;;;;;;;;;;;5073490;28;1886;-64
2022/11/21 15:39:50;;;;;;;;;;;;;;;;;;5056414;28;1188;-64
2022/11/21 15:42:30;;;;;;;;;;;;;;;;;;5090810;28;793;-64
2022/11/21 15:44:57;;;;;;;;;;;;;;;;;;5073518;28;1270;-64
2022/11/21 15:47:22;;;;;;;;;;;;;;;;;;5073000;28;1358;-64
2022/11/21 15:49:47;;;;;;;;;;;;;;;;;;5090913;28;833;-64
2022/11/21 15:52:12;;;;;;;;;;;;;;;;;;5073401;28;844;-64
2022/11/21 15:54:38;;;;;;;;;;;;;;;;;;5072585;28;1250;-64
2022/11/21 15:57:03;;;;;;;;;;;;;;;;;;5073245;28;1906;-64
2022/11/21 15:59:28;;;;;;;;;;;;;;;;;;5091152;28;863;-64
2022/11/21 16:01:53;;;;;;;;;;;;;;;;;;5073093;28;1164;-65
2022/11/21 16:04:19;;;;;;;;;;;;;;;;;;5073476;28;1050;-65
2022/11/21 16:06:44;;;;;;;;;;;;;;;;;;5090768;28;753;-65
2022/11/21 16:09:09;;;;;;;;;;;;;;;;;;5091871;28;896;-65
2022/11/21 16:11:42;;;;;;;;;;;;;;;;;;5072656;28;1350;-65
2022/11/21 16:14:07;;;;;;;;;;;;;;;;;;5073160;28;1054;-65
2022/11/21 16:16:36;;;;;;;;;;;;;;;;;;5090653;28;1918;-65
2022/11/21 16:19:01;;;;;;;;;;;;;;;;;;5091964;28;963;-65
2022/11/21 16:21:27;;;;;;;;;;;;;;;;;;5073091;28;754;-65
2022/11/21 16:23:52;;;;;;;;;;;;;;;;;;5091870;28;1019;-65
2022/11/21 16:26:17;;;;;;;;;;;;;;;;;;5073376;28;817;-65
2022/11/21 16:28:43;;;;;;;;;;;;;;;;;;5090685;28;923;-65
2022/11/21 16:31:18;;;;;;;;;;;;;;;;;;5091575;28;979;-65
2022/11/21 16:33:43;;;;;;;;;;;;;;;;;;5072756;28;837;-65
2022/11/21 16:36:09;;;;;;;;;;;;;;;;;;5072661;28;1333;-65
2022/11/21 16:38:34;;;;;;;;;;;;;;;;;;5090056;28;1905;-65
2022/11/21 16:41:00;;;;;;;;;;;;;;;;;;5090712;28;955;-65
2022/11/21 16:43:26;;;;;;;;;;;;;;;;;;5072461;28;1283;-65
2022/11/21 16:45:52;;;;;;;;;;;;;;;;;;5073362;28;1318;-65
2022/11/21 16:48:18;;;;;;;;;;;;;;;;;;5091253;28;849;-65
2022/11/21 16:50:43;;;;;;;;;;;;;;;;;;5089522;28;836;-65
2022/11/21 16:53:09;;;;;;;;;;;;;;;;;;5090378;28;853;-65
2022/11/21 16:55:34;;;;;;;;;;;;;;;;;;5090209;28;935;-65
2022/11/21 16:57:59;;;;;;;;;;;;;;;;;;5090419;28;1967;-65
2022/11/21 17:00:25;;;;;;;;;;;;;;;;;;5072473;28;1286;-65
2022/11/21 17:02:51;;;;;;;;;;;;;;;;;;5090172;28;896;-64
2022/11/21 17:05:16;;;;;;;;;;;;;;;;;;5072417;28;825;-65
2022/11/21 17:07:42;;;;;;;;;;;;;;;;;;5072124;28;817;-65
2022/11/21 17:10:08;;;;;;;;;;;;;;;;;;5072249;28;1286;-65
2022/11/21 17:12:34;;;;;;;;;;;;;;;;;;5089969;28;770;-65
2022/11/21 17:14:59;;;;;;;;;;;;;;;;;;5072036;28;1183;-65
2022/11/21 17:17:25;;;;;;;;;;;;;;;;;;5072165;28;1898;-65
2022/11/21 17:19:53;;;;;;;;;;;;;;;;;;5090158;28;797;-65
2022/11/21 17:22:19;;;;;;;;;;;;;;;;;;5090869;28;829;-65
2022/11/21 17:24:44;;;;;;;;;;;;;;;;;;5071222;28;1217;-66
2022/11/21 17:27:09;;;;;;;;;;;;;;;;;;5072563;28;829;-65
2022/11/21 17:29:34;;;;;;;;;;;;;;;;;;5089759;28;849;-65
2022/11/21 17:32:00;;;;;;;;;;;;;;;;;;5089908;28;845;-65
2022/11/21 17:34:25;;;;;;;;;;;;;;;;;;5072306;28;864;-65
2022/11/21 17:36:50;;;;;;;;;;;;;;;;;;5089218;28;1910;-64
2022/11/21 17:39:16;;;;;;;;;;;;;;;;;;5089805;28;820;-64
2022/11/21 17:41:42;;;;;;;;;;;;;;;;;;5089466;28;844;-65
2022/11/21 17:44:11;;;;;;;;;;;;;;;;;;5071841;28;1290;-66
2022/11/21 17:46:36;;;;;;;;;;;;;;;;;;5089280;28;1389;-66
2022/11/21 17:49:01;;;;;;;;;;;;;;;;;;5072073;28;1167;-66
2022/11/21 17:51:28;;;;;;;;;;;;;;;;;;5089578;28;895;-66
2022/11/21 17:53:53;;;;;;;;;;;;;;;;;;5089780;28;859;-66
2022/11/21 17:56:19;;;;;;;;;;;;;;;;;;5090558;28;837;-66